Search for airport 
image banner adimage banner adimage banner ad
image banner ad

KNKX - Miramar Mcas

Located in San Diego, United States

ICAO - NKX, IATA -

Data provided by Airmate  

General information

Coordinates: N32°52'7" W117°8'35"
Elevation is 477 feet MSL.
Magnetic variation is 12° East
View others Airports in California

Operational data

Special qualification required
Current time UTC:
Current local time:
Weather
METAR: KNKX 260855Z 25003KT 10SM OVC010 17/16 A3001 RMK AO2 SLP156 T01720156 50000
TAF: TAF KNKX 2609/2709 VRB05KT 9999 OVC010 QNH2996INS BECMG 2614/2616 VRB06KT 9999 FEW015 QNH3002INS FM261930 29008KT 9999 SKC QNH3001INS T16/2614Z T23/2620Z
View NOTAMs / SUP AIP / TFR affecting this airport [VIEW]
Communications frequencies: [VIEW]

Runways:

RWY identifierQFULength (ft)Width (ft)SurfaceLDA (ft)
06R75°8001200OTHER
24L255°8001200OTHER
06L75°12000200CONC
24R255°12000200CONC

Airport contact information

Address: San Diego United States

Satellite view of KNKX